Time;durP1;ratioP1;P1;durP2;ratioP2;P2;SDS_P1;SDS_P2;PMS_P1;PMS_P2;Temp;Humidity;BMP_temperature;BMP_pressure;BME280_temperature;BME280_humidity;BME280_pressure;Samples;Min_cycle;Max_cycle;Signal;HPM_P1;HPM_P2
2023/03/15 00:02:04;;;;;;;7.65;2.03;;;1.70;99.90;;;1.90;82.92;99995.91;5031619;28;20025;-74
2023/03/15 00:04:33;;;;;;;9.60;1.90;;;1.70;99.90;;;1.98;82.74;99993.16;5032389;28;20408;-74
2023/03/15 00:07:00;;;;;;;12.70;1.58;;;1.70;99.90;;;1.96;82.73;99994.38;5032166;28;20486;-74
2023/03/15 00:09:26;;;;;;;8.80;1.95;;;1.70;99.90;;;1.95;82.04;99992.69;5031577;28;20119;-75
2023/03/15 00:11:55;;;;;;;7.35;2.22;;;1.80;99.90;;;1.95;82.22;99995.38;5030808;28;20112;-74
2023/03/15 00:14:21;;;;;;;10.73;1.60;;;1.80;99.90;;;1.97;82.33;100004.94;5028393;28;20045;-74
2023/03/15 00:16:47;;;;;;;10.23;1.90;;;1.80;99.90;;;1.95;82.79;100019.59;5030787;28;20044;-74
2023/03/15 00:19:13;;;;;;;9.45;1.48;;;1.90;99.90;;;1.95;82.88;100016.91;5031004;28;20128;-74
2023/03/15 00:21:42;;;;;;;10.00;1.50;;;1.80;99.90;;;1.89;82.60;100023.81;5031435;28;20474;-74
2023/03/15 00:24:11;;;;;;;7.07;1.90;;;1.80;99.90;;;1.92;82.56;100019.94;5030717;28;20029;-74
2023/03/15 00:26:37;;;;;;;10.07;1.70;;;1.90;99.90;;;1.89;82.93;100023.00;5032040;28;20052;-74
2023/03/15 00:29:04;;;;;;;9.73;1.60;;;1.80;99.90;;;1.86;82.89;100033.09;5030117;28;20427;-74
2023/03/15 00:31:30;;;;;;;8.52;1.70;;;1.70;99.90;;;1.70;83.61;100025.06;5028602;28;20038;-75
2023/03/15 00:33:55;;;;;;;15.88;1.50;;;1.70;99.90;;;1.66;84.57;100026.44;5031829;28;20037;-75
2023/03/15 00:36:24;;;;;;;8.65;1.60;;;1.60;99.90;;;1.66;85.02;100032.66;5031774;28;20042;-75
2023/03/15 00:38:54;;;;;;;8.30;1.38;;;1.40;99.90;;;1.52;85.63;100039.59;5030216;28;20033;-74
2023/03/15 00:41:21;;;;;;;8.45;1.30;;;1.40;99.90;;;1.57;86.14;100031.81;4997276;28;20034;-75
2023/03/15 00:43:48;;;;;;;10.30;1.63;;;1.30;99.90;;;1.36;86.25;100051.22;5026679;28;20033;-74
2023/03/15 00:46:16;;;;;;;11.10;1.73;;;1.30;99.90;;;1.38;86.76;100051.06;5031778;28;20045;-74
2023/03/15 00:48:42;;;;;;;8.80;1.60;;;1.30;99.90;;;1.28;87.70;100054.75;5046333;28;20045;-74
2023/03/15 00:51:11;;;;;;;11.85;1.80;;;1.20;99.90;;;1.29;87.44;100061.81;5046507;28;20055;-75
2023/03/15 00:53:40;;;;;;;13.02;2.20;;;1.20;99.90;;;1.31;87.89;100066.16;5031511;28;20370;-73
2023/03/15 00:56:15;;;;;;;11.65;1.60;;;1.20;99.90;;;1.33;87.61;100069.56;5046373;28;20483;-74
2023/03/15 00:58:41;;;;;;;8.98;1.50;;;1.20;99.90;;;1.36;86.99;100069.22;5041737;28;20038;-74
2023/03/15 01:01:12;;;;;;;11.80;1.70;;;1.20;99.90;;;1.42;86.93;100074.72;5031205;28;20040;-75
2023/03/15 01:03:39;;;;;;;9.70;1.52;;;1.30;99.90;;;1.47;86.72;100068.00;5027417;28;20141;-74
2023/03/15 01:06:15;;;;;;;9.87;2.13;;;1.40;99.90;;;1.63;86.14;100062.56;5029048;28;20159;-75
2023/03/15 01:08:42;;;;;;;8.50;1.48;;;1.50;99.90;;;1.68;85.90;100068.28;5046436;28;20087;-74
2023/03/15 01:11:14;;;;;;;10.05;2.05;;;1.50;99.90;;;1.81;85.62;100064.22;5024917;28;20036;-74
2023/03/15 01:13:40;;;;;;;5.03;1.55;;;1.70;99.90;;;1.82;84.59;100055.13;5028855;28;20087;-74
2023/03/15 01:16:10;;;;;;;9.02;1.45;;;1.60;99.90;;;1.90;84.54;100063.16;5029411;28;20048;-74
2023/03/15 01:18:36;;;;;;;6.63;1.52;;;1.80;99.90;;;1.92;83.65;100063.81;5031187;28;20038;-75
2023/03/15 01:21:07;;;;;;;6.97;1.17;;;1.80;99.90;;;2.01;83.52;100056.56;5044760;28;20045;-74
2023/03/15 01:23:32;;;;;;;9.35;1.60;;;1.90;99.90;;;2.02;83.33;100060.94;5012207;28;20033;-75
2023/03/15 01:26:04;;;;;;;8.13;1.80;;;1.90;99.90;;;1.95;83.23;100059.94;5031568;28;20492;-75
2023/03/15 01:28:30;;;;;;;9.73;1.50;;;2.00;99.90;;;2.00;82.43;100063.81;5030697;28;20059;-75
2023/03/15 01:30:55;;;;;;;10.45;1.80;;;1.90;99.90;;;2.08;82.12;100054.00;5029223;28;20121;-75
2023/03/15 01:33:22;;;;;;;7.70;1.83;;;1.90;99.90;;;2.09;82.10;100061.06;5030605;28;20041;-76
2023/03/15 01:35:57;;;;;;;7.95;1.48;;;1.90;99.90;;;2.13;82.47;100055.16;5045843;28;20033;-75
2023/03/15 01:38:23;;;;;;;8.90;1.50;;;2.10;99.90;;;2.02;82.32;100066.31;5028851;28;20080;-75
2023/03/15 01:40:49;;;;;;;7.22;1.33;;;2.00;99.90;;;2.09;81.80;100061.88;5029839;28;20076;-76
2023/03/15 01:43:19;;;;;;;9.95;1.90;;;2.00;99.90;;;2.19;81.99;100064.38;5045646;28;20481;-75
2023/03/15 01:46:00;;;;;;;8.13;1.70;;;2.00;99.90;;;2.17;82.49;100063.72;5020933;28;20029;-75
2023/03/15 01:48:45;;;;;;;8.55;1.75;;;2.00;99.90;;;2.10;81.76;100058.19;5045823;28;20041;-75
2023/03/15 01:51:44;;;;;;;8.05;1.83;;;2.00;99.90;;;2.20;81.68;100057.16;5025735;28;20547;-76
2023/03/15 01:54:17;;;;;;;10.00;1.75;;;2.10;99.90;;;2.21;81.84;100067.72;5042490;28;20037;-75
2023/03/15 01:56:53;;;;;;;6.75;1.25;;;2.00;99.90;;;2.19;81.60;100056.28;5029046;28;20025;-76
2023/03/15 01:59:28;;;;;;;7.47;1.70;;;2.00;99.90;;;2.23;81.52;100078.31;5025988;28;20038;-75
2023/03/15 02:01:55;;;;;;;8.23;3.13;;;2.00;99.90;;;2.28;81.66;100071.41;5043922;28;20025;-75
2023/03/15 02:04:30;;;;;;;7.45;1.60;;;2.10;99.90;;;2.20;81.20;100074.13;5022659;28;20107;-75
2023/03/15 02:07:00;;;;;;;10.07;1.45;;;2.10;99.90;;;2.27;80.96;100075.13;5044346;28;20478;-76
2023/03/15 02:09:46;;;;;;;5.57;1.25;;;2.20;99.90;;;2.30;80.45;100074.75;5028836;28;20124;-75
2023/03/15 02:12:12;;;;;;;11.55;1.70;;;2.20;99.90;;;2.33;80.92;100080.81;5045152;28;20124;-75
2023/03/15 02:14:40;;;;;;;8.50;1.42;;;2.10;99.90;;;2.26;81.09;100065.38;5033289;28;20466;-75
2023/03/15 02:17:07;;;;;;;13.57;1.33;;;2.20;99.90;;;2.37;80.74;100074.03;5008851;28;20492;-75
2023/03/15 02:19:39;;;;;;;9.15;1.58;;;2.20;99.90;;;2.43;80.07;100078.72;5026919;28;20128;-75
2023/03/15 02:22:27;;;;;;;12.57;1.73;;;2.20;99.90;;;2.41;80.70;100080.75;5029421;28;20037;-75
2023/03/15 02:25:43;;;;;;;8.45;1.80;;;2.20;99.90;;;2.46;79.99;100088.31;5022402;28;20042;-75
2023/03/15 02:28:13;;;;;;;7.15;1.70;;;2.30;99.90;;;2.54;80.48;100089.09;5025956;28;20052;-76
2023/03/15 02:30:42;;;;;;;6.95;1.52;;;2.30;99.90;;;2.48;79.55;100087.09;5028983;28;20071;-75
2023/03/15 02:33:26;;;;;;;6.25;1.40;;;2.30;99.90;;;2.55;79.61;100082.69;5042887;28;20060;-75
2023/03/15 02:35:53;;;;;;;8.02;1.95;;;2.40;99.90;;;2.59;78.96;100085.84;5027244;28;20049;-75
2023/03/15 02:38:21;;;;;;;8.23;1.80;;;2.40;99.90;;;2.63;78.84;100089.03;5029973;28;20334;-75
2023/03/15 02:40:47;;;;;;;6.35;1.40;;;2.50;99.90;;;2.72;77.18;100091.50;5025006;28;20030;-74
2023/03/15 02:43:19;;;;;;;10.15;1.73;;;2.50;99.90;;;2.81;76.45;100091.44;5028686;28;20041;-73
2023/03/15 02:45:46;;;;;;;8.88;1.50;;;2.60;99.90;;;2.93;76.36;100090.00;5029529;28;20025;-74
2023/03/15 02:48:12;;;;;;;10.45;2.10;;;2.80;99.90;;;2.98;76.66;100084.91;5028103;28;20041;-74
2023/03/15 02:50:38;;;;;;;8.63;1.40;;;2.90;99.90;;;3.04;75.53;100095.97;5025744;28;20038;-74
2023/03/15 02:53:04;;;;;;;10.43;1.52;;;3.00;99.90;;;3.10;75.81;100096.09;5042160;28;20385;-73
2023/03/15 02:55:33;;;;;;;9.02;1.60;;;3.00;99.90;;;3.07;75.49;100095.63;5029070;28;20091;-73
2023/03/15 02:58:00;;;;;;;12.80;1.63;;;3.10;99.90;;;3.09;74.31;100098.97;5029602;28;20327;-73
2023/03/15 03:00:28;;;;;;;6.70;1.73;;;3.10;99.90;;;3.08;75.59;100097.28;5028573;28;20033;-73
2023/03/15 03:02:55;;;;;;;9.35;1.70;;;3.10;99.90;;;3.00;74.98;100085.56;5028070;28;20049;-73
2023/03/15 03:05:21;;;;;;;6.53;1.80;;;3.10;99.90;;;2.98;75.44;100105.63;5025632;28;20484;-73
2023/03/15 03:07:49;;;;;;;8.80;1.60;;;3.00;99.90;;;2.93;77.17;100111.56;5027971;28;20060;-73
2023/03/15 03:10:17;;;;;;;;;;;2.90;99.90;;;3.02;76.50;100109.63;5027703;28;20037;-73
2023/03/15 03:12:52;;;;;;;8.02;1.77;;;2.90;99.90;;;2.88;77.33;100114.78;5023244;28;19948;-74
2023/03/15 03:15:20;;;;;;;9.27;1.80;;;2.80;99.90;;;2.82;77.40;100123.59;5024999;28;20085;-73
2023/03/15 03:17:46;;;;;;;7.13;2.15;;;2.70;99.90;;;2.72;78.88;100137.28;5028180;28;20029;-74
2023/03/15 03:20:14;;;;;;;8.82;2.03;;;2.70;99.90;;;2.76;79.74;100137.75;5044242;28;20061;-74
2023/03/15 03:22:44;;;;;;;7.10;1.92;;;2.60;99.90;;;2.65;79.87;100140.88;5026824;28;20061;-74
2023/03/15 03:25:11;;;;;;;9.90;2.38;;;2.60;99.90;;;2.62;80.47;100135.84;5008910;28;20073;-74
2023/03/15 03:27:39;;;;;;;12.57;2.10;;;2.50;99.90;;;2.56;81.05;100148.16;5042272;28;20060;-73
2023/03/15 03:30:11;;;;;;;11.23;2.00;;;2.40;99.90;;;2.52;82.13;100160.28;5042137;28;20477;-74
2023/03/15 03:32:40;;;;;;;9.30;1.90;;;2.40;99.90;;;2.39;83.54;100164.41;5031423;28;20390;-74
2023/03/15 03:35:08;;;;;;;10.75;2.72;;;2.30;99.90;;;2.36;84.41;100177.38;5030976;28;20034;-74
2023/03/15 03:37:34;;;;;;;8.73;2.55;;;2.30;99.90;;;2.35;85.64;100173.00;5047490;28;20087;-74
2023/03/15 03:40:06;;;;;;;8.18;2.60;;;2.20;99.90;;;2.24;87.00;100191.19;5015861;28;20075;-73
2023/03/15 03:42:32;;;;;;;9.38;2.45;;;2.20;99.90;;;2.19;87.85;100207.03;5032664;28;20120;-73
2023/03/15 03:44:58;;;;;;;12.10;2.97;;;2.30;99.90;;;2.28;89.39;100199.78;5029502;28;20044;-74
2023/03/15 03:47:30;;;;;;;9.70;2.85;;;2.20;99.90;;;2.13;90.12;100211.28;5046681;28;20036;-73
2023/03/15 03:49:55;;;;;;;10.32;3.13;;;2.00;99.90;;;2.08;91.24;100210.91;5027692;28;20128;-73
2023/03/15 03:52:21;;;;;;;7.72;2.58;;;2.00;99.90;;;2.12;92.02;100209.59;5014764;28;20072;-73
2023/03/15 03:54:49;;;;;;;6.45;2.50;;;2.10;99.90;;;2.15;92.85;100222.69;5031133;28;20107;-74
2023/03/15 03:57:15;;;;;;;7.18;3.05;;;2.10;99.90;;;2.11;92.81;100209.75;5032670;28;20041;-74
2023/03/15 03:59:41;;;;;;;8.07;3.17;;;2.00;99.90;;;2.03;93.98;100207.09;5030021;28;20040;-74
2023/03/15 04:02:08;;;;;;;7.25;3.13;;;1.90;99.90;;;1.97;95.06;100230.13;5030496;28;20084;-74
2023/03/15 04:04:34;;;;;;;13.20;3.35;;;2.00;99.90;;;1.97;95.81;100222.06;5029456;28;20465;-74
2023/03/15 04:07:01;;;;;;;9.38;3.22;;;2.20;99.90;;;1.85;96.98;100235.84;5047157;28;20037;-74
2023/03/15 04:09:36;;;;;;;9.95;3.17;;;1.90;99.90;;;2.01;97.33;100239.53;5012957;28;20528;-74
2023/03/15 04:12:05;;;;;;;7.43;3.33;;;1.90;99.90;;;2.03;97.19;100242.88;5031882;28;20041;-74
2023/03/15 04:14:31;;;;;;;10.23;3.20;;;1.90;99.90;;;1.98;98.39;100250.66;5046930;28;22061;-73
2023/03/15 04:16:57;;;;;;;10.82;3.70;;;1.70;99.90;;;1.90;98.56;100269.50;5027435;28;20026;-74
2023/03/15 04:19:24;;;;;;;7.07;3.22;;;1.70;99.90;;;1.98;98.88;100264.91;5046671;28;20400;-74
2023/03/15 04:21:51;;;;;;;11.60;3.40;;;1.80;99.90;;;2.07;98.92;100259.56;5012276;28;20120;-74
2023/03/15 04:24:35;;;;;;;9.40;3.08;;;1.90;99.90;;;2.21;98.34;100260.69;5026218;28;20297;-73
2023/03/15 04:27:20;;;;;;;6.40;3.40;;;2.00;99.90;;;2.37;98.48;100268.72;5030872;28;20044;-74
2023/03/15 04:30:05;;;;;;;9.73;3.17;;;2.00;99.90;;;2.33;98.00;100262.00;5025521;28;20104;-73
2023/03/15 04:32:46;;;;;;;11.27;3.53;;;2.20;99.90;;;2.37;97.80;100276.81;5015685;28;20038;-74
2023/03/15 04:35:35;;;;;;;9.00;2.72;;;2.20;99.90;;;2.42;97.50;100277.16;5027441;28;20060;-74
2023/03/15 04:38:25;;;;;;;5.47;3.33;;;2.20;99.90;;;2.29;98.89;100284.91;5026641;28;20045;-74
2023/03/15 04:41:09;;;;;;;6.47;3.25;;;2.30;99.90;;;2.37;98.98;100276.81;5030563;28;20477;-74
2023/03/15 04:43:43;;;;;;;11.60;3.42;;;2.40;99.90;;;2.44;99.53;100287.72;5030742;28;20029;-73
2023/03/15 04:46:26;;;;;;;10.00;3.08;;;2.30;99.90;;;2.47;99.19;100291.94;5031435;28;20104;-72
2023/03/15 04:49:08;;;;;;;9.55;3.35;;;2.40;99.90;;;2.43;99.77;100291.44;5028138;28;20049;-73
2023/03/15 04:51:53;;;;;;;6.85;3.05;;;2.40;99.90;;;2.43;99.00;100300.38;5029324;28;20152;-74
2023/03/15 04:54:27;;;;;;;9.40;3.40;;;2.60;99.90;;;2.49;98.91;100292.59;5027280;28;20211;-74
2023/03/15 04:57:10;;;;;;;10.02;3.20;;;2.40;99.90;;;2.57;99.78;100297.97;5020526;28;20037;-75
2023/03/15 04:59:46;;;;;;;7.03;3.33;;;2.50;99.90;;;2.66;99.31;100305.03;5027989;28;20045;-74
2023/03/15 05:02:33;;;;;;;13.02;3.95;;;2.40;99.90;;;2.64;98.77;100309.72;5017496;28;20074;-74
2023/03/15 05:05:10;;;;;;;8.45;3.33;;;2.40;99.90;;;2.61;98.75;100315.47;5046383;28;20041;-75
2023/03/15 05:07:48;;;;;;;10.63;3.47;;;2.50;99.90;;;2.63;98.90;100310.72;5026717;28;20519;-74
2023/03/15 05:10:46;;;;;;;14.63;4.15;;;2.50;99.90;;;2.48;100.00;100318.69;5020339;28;20563;-74
2023/03/15 05:13:44;;;;;;;8.68;3.67;;;2.50;99.90;;;2.65;100.00;100327.59;5029423;28;20107;-74
2023/03/15 05:16:29;;;;;;;7.60;3.13;;;2.50;99.90;;;2.67;100.00;100335.47;5029591;28;20044;-75
2023/03/15 05:19:15;;;;;;;8.15;3.60;;;2.80;99.90;;;2.57;100.00;100328.44;5031098;28;20068;-74
2023/03/15 05:22:01;;;;;;;10.43;3.80;;;2.60;99.90;;;2.68;100.00;100343.41;5030511;28;20044;-73
2023/03/15 05:24:45;;;;;;;7.93;3.72;;;2.50;99.90;;;2.64;100.00;100339.34;5031116;28;20040;-74
2023/03/15 05:27:33;;;;;;;10.52;3.17;;;2.50;99.90;;;2.70;100.00;100344.06;5046115;28;20055;-75
2023/03/15 05:30:17;;;;;;;8.07;3.30;;;2.50;99.90;;;2.57;100.00;100346.44;5022941;28;20041;-74
2023/03/15 05:33:03;;;;;;;11.10;3.67;;;2.50;99.90;;;2.67;100.00;100351.66;5029312;28;20504;-74
2023/03/15 05:35:43;;;;;;;10.05;3.53;;;2.50;99.90;;;2.68;100.00;100356.88;5023954;28;20452;-75
2023/03/15 05:38:34;;;;;;;7.53;3.53;;;2.40;99.90;;;2.71;100.00;100361.06;5042486;28;20041;-75
2023/03/15 05:41:16;;;;;;;9.80;3.97;;;2.50;99.90;;;2.73;100.00;100365.28;5042612;28;20045;-76
2023/03/15 05:44:00;;;;;;;10.23;3.63;;;2.50;99.90;;;2.75;100.00;100364.25;5030992;28;20100;-75
2023/03/15 05:46:44;;;;;;;8.20;3.70;;;2.50;99.90;;;2.78;100.00;100378.22;5029960;28;20048;-75
2023/03/15 05:49:22;;;;;;;8.13;3.50;;;2.50;99.90;;;2.85;100.00;100375.66;5029684;28;20040;-76
2023/03/15 05:51:55;;;;;;;6.57;3.60;;;2.60;99.90;;;2.77;99.63;100381.09;5027689;28;20041;-75
2023/03/15 05:54:46;;;;;;;8.00;3.53;;;2.50;99.90;;;2.83;100.00;100392.03;5022375;28;20410;-74
2023/03/15 05:57:31;;;;;;;16.60;3.58;;;2.60;99.90;;;2.71;99.13;100393.38;5030089;28;20047;-74
2023/03/15 06:00:35;;;;;;;7.63;3.13;;;2.60;99.90;;;2.87;98.26;100392.50;5016370;28;20057;-74
2023/03/15 06:03:08;;;;;;;10.63;3.22;;;2.60;99.90;;;2.80;98.69;100405.84;5026597;28;20037;-73
2023/03/15 06:05:48;;;;;;;7.65;3.03;;;2.70;99.90;;;2.90;99.08;100411.03;5015707;28;20072;-74
2023/03/15 06:08:19;;;;;;;7.10;3.10;;;2.70;99.90;;;2.90;98.24;100421.81;5045437;28;20037;-74
2023/03/15 06:10:48;;;;;;;9.50;3.78;;;2.70;99.90;;;2.89;98.42;100425.50;5028988;28;20033;-73
2023/03/15 06:13:14;;;;;;;8.20;3.65;;;2.70;99.90;;;2.92;98.77;100429.72;5003334;28;20149;-73
2023/03/15 06:15:40;;;;;;;12.85;3.80;;;2.80;99.90;;;2.83;98.25;100431.59;5027162;28;20124;-74
2023/03/15 06:18:08;;;;;;;;;;;2.80;99.90;;;2.86;99.24;100442.03;5029385;28;20076;-74
2023/03/15 06:20:34;;;;;;;7.88;3.20;;;2.80;99.90;;;2.93;99.82;100450.28;5029499;28;20126;-73
2023/03/15 06:23:06;;;;;;;9.48;3.80;;;2.80;99.90;;;2.95;99.95;100440.16;5012461;28;21601;-73
2023/03/15 06:25:41;;;;;;;6.88;3.47;;;2.80;99.90;;;2.99;99.78;100447.75;5028789;28;20389;-73
2023/03/15 06:28:07;;;;;;;9.38;4.03;;;2.80;99.90;;;3.00;99.70;100449.41;5028795;28;20040;-73
2023/03/15 06:30:34;;;;;;;8.25;4.15;;;2.80;99.90;;;2.96;99.98;100449.94;5042382;28;20401;-74
2023/03/15 06:33:00;;;;;;;8.73;4.22;;;2.80;99.90;;;2.90;99.93;100458.69;5029277;28;20037;-73
2023/03/15 06:35:26;;;;;;;7.05;3.70;;;2.70;99.90;;;2.79;99.72;100467.97;5028164;28;20374;-73
2023/03/15 06:37:52;;;;;;;8.65;4.10;;;2.60;99.90;;;2.85;100.00;100470.84;5030842;28;20030;-73
2023/03/15 06:40:18;;;;;;;10.10;4.43;;;2.60;99.90;;;2.83;100.00;100472.88;5042137;28;20053;-73
2023/03/15 06:42:45;;;;;;;9.25;4.10;;;2.70;99.90;;;2.83;100.00;100472.00;5022149;28;20128;-73
2023/03/15 06:45:15;;;;;;;8.55;4.07;;;2.70;99.90;;;2.96;100.00;100476.88;5043819;28;20386;-73
2023/03/15 06:47:41;;;;;;;9.85;3.83;;;2.70;99.90;;;2.80;100.00;100481.28;5029898;28;20034;-74
2023/03/15 06:50:08;;;;;;;8.68;4.43;;;2.70;99.90;;;2.70;100.00;100492.25;5019493;28;20026;-74
2023/03/15 06:52:34;;;;;;;10.82;4.47;;;2.70;99.90;;;2.78;100.00;100485.16;5005591;28;20164;-74
2023/03/15 06:55:00;;;;;;;13.00;4.28;;;2.60;99.90;;;2.77;100.00;100488.88;5023340;28;20037;-73
2023/03/15 06:57:27;;;;;;;9.45;4.45;;;2.70;99.90;;;2.93;100.00;100505.03;5028869;28;20087;-74
2023/03/15 06:59:53;;;;;;;8.45;4.38;;;2.80;99.90;;;3.16;100.00;100496.22;5029992;28;20029;-73
2023/03/15 07:02:18;;;;;;;8.43;4.53;;;2.90;99.90;;;3.22;100.00;100509.03;5043720;28;20033;-73
2023/03/15 07:04:44;;;;;;;7.60;3.95;;;3.00;99.90;;;3.27;99.82;100517.44;5033196;28;20380;-73
2023/03/15 07:07:11;;;;;;;8.45;4.60;;;3.10;99.90;;;3.62;99.15;100513.63;5031860;28;20544;-73
2023/03/15 07:09:38;;;;;;;8.60;4.38;;;3.40;99.90;;;3.85;97.61;100508.31;5034048;28;20040;-73
2023/03/15 07:12:05;;;;;;;7.45;4.20;;;3.50;99.90;;;3.34;97.21;100516.75;5034267;28;20038;-73
2023/03/15 07:14:33;;;;;;;9.77;4.28;;;3.40;99.90;;;3.55;97.44;100518.84;5031930;28;20052;-73
2023/03/15 07:16:59;;;;;;;;;;;3.60;99.90;;;3.11;99.32;100528.25;5034105;28;20022;-73
2023/03/15 07:19:24;;;;;;;10.15;3.95;;;3.40;99.90;;;3.33;98.52;100528.53;5048777;28;20839;-73
2023/03/15 07:21:50;;;;;;;7.95;3.33;;;3.40;99.90;;;3.28;97.90;100535.28;5039674;28;20049;-75
2023/03/15 07:24:17;;;;;;;8.48;4.22;;;3.40;99.90;;;3.33;98.91;100544.72;5048262;28;20079;-74
2023/03/15 07:26:43;;;;;;;10.32;4.38;;;3.40;99.90;;;3.40;98.21;100546.56;5033388;28;20033;-76
2023/03/15 07:29:09;;;;;;;11.70;4.20;;;3.50;99.90;;;3.48;97.95;100542.16;5049267;28;20029;-75
2023/03/15 07:31:34;;;;;;;10.77;4.70;;;3.50;99.90;;;3.89;96.21;100548.25;5032392;28;20489;-75
2023/03/15 07:34:00;;;;;;;8.40;3.72;;;3.60;99.90;;;3.93;94.17;100554.16;5032788;28;20033;-75
2023/03/15 07:36:26;;;;;;;12.13;3.85;;;3.80;99.90;;;3.69;94.06;100561.31;5032990;28;20025;-75
2023/03/15 07:38:52;;;;;;;10.70;4.07;;;3.70;99.90;;;3.77;94.61;100565.84;5033804;28;20033;-74
2023/03/15 07:41:17;;;;;;;8.48;3.95;;;3.60;99.90;;;3.87;93.45;100561.09;5033334;28;20039;-75
2023/03/15 07:43:56;;;;;;;10.10;4.40;;;3.90;99.90;;;4.29;92.14;100558.19;5032191;28;20464;-74
2023/03/15 07:46:22;;;;;;;11.50;4.30;;;4.10;99.90;;;4.36;91.64;100559.16;5033601;28;20095;-75
2023/03/15 07:48:47;;;;;;;8.35;3.60;;;4.30;99.90;;;4.20;89.78;100564.63;5029742;28;20038;-74
2023/03/15 07:51:13;;;;;;;8.35;3.78;;;4.20;99.90;;;4.29;90.51;100572.53;5031123;28;20041;-75
2023/03/15 07:53:39;;;;;;;12.02;3.85;;;4.20;99.90;;;3.92;91.54;100573.22;5031950;28;20081;-76
2023/03/15 07:56:05;;;;;;;8.50;3.70;;;4.10;99.90;;;4.12;90.34;100571.78;5032758;28;20059;-76
2023/03/15 07:58:31;;;;;;;7.85;3.35;;;4.30;99.90;;;4.55;88.39;100571.38;5032343;28;20087;-75
2023/03/15 08:00:57;;;;;;;7.07;2.83;;;4.50;99.90;;;4.59;86.50;100571.84;5027555;28;20033;-76
2023/03/15 08:03:23;;;;;;;7.43;2.63;;;4.60;99.90;;;3.92;88.67;100573.22;5028973;28;20042;-75
2023/03/15 08:05:50;;;;;;;7.57;3.03;;;4.20;99.90;;;3.75;89.07;100570.59;5031077;28;20030;-76
2023/03/15 08:08:15;;;;;;;6.68;2.80;;;4.10;99.90;;;3.72;87.87;100581.72;5030997;28;20052;-78
2023/03/15 08:10:43;;;;;;;6.93;2.63;;;4.00;99.90;;;3.74;86.96;100582.41;5032450;28;20034;-78
2023/03/15 08:13:08;;;;;;;6.40;2.78;;;4.00;99.90;;;3.70;88.82;100591.81;5046102;28;20029;-78
2023/03/15 08:15:34;;;;;;;7.10;2.92;;;3.90;99.90;;;4.39;88.62;100588.50;5031341;28;20103;-77
2023/03/15 08:18:00;;;;;;;6.72;2.88;;;4.20;99.90;;;4.61;86.18;100586.84;5044386;28;20029;-77
2023/03/15 08:20:26;;;;;;;6.15;2.83;;;4.60;99.90;;;4.90;84.55;100584.47;5031605;28;20061;-75
2023/03/15 08:22:52;;;;;;;5.63;2.88;;;4.70;99.90;;;4.94;83.64;100579.56;5031110;28;20045;-75
2023/03/15 08:25:22;;;;;;;11.20;2.83;;;4.80;99.90;;;4.82;83.97;100587.25;5030977;28;20180;-78
2023/03/15 08:27:50;;;;;;;9.57;3.22;;;4.90;99.90;;;4.38;86.38;100603.03;5014242;28;20029;-76
2023/03/15 08:30:17;;;;;;;9.00;3.35;;;4.50;99.90;;;4.92;84.12;100598.66;5031933;28;20033;-75
2023/03/15 08:32:45;;;;;;;6.53;3.43;;;4.70;99.90;;;5.06;82.29;100602.41;5032453;28;20045;-77
2023/03/15 08:35:13;;;;;;;7.53;3.10;;;4.90;99.90;;;4.87;81.84;100598.34;5031340;28;20329;-77
2023/03/15 08:37:39;;;;;;;5.72;2.92;;;5.00;99.90;;;5.45;80.92;100617.66;5030905;28;20509;-77
2023/03/15 08:40:10;;;;;;;9.73;2.88;;;5.50;99.90;;;5.69;81.94;100614.88;5029858;28;20052;-76
2023/03/15 08:42:37;;;;;;;4.68;2.28;;;5.40;99.90;;;5.90;77.35;100611.41;5029197;28;20447;-76
2023/03/15 08:45:07;;;;;;;6.43;2.63;;;5.60;99.90;;;5.20;79.67;100610.78;5029861;28;20025;-77
2023/03/15 08:47:34;;;;;;;8.57;2.92;;;5.40;99.90;;;5.74;80.10;100617.84;5023676;28;20300;-78
2023/03/15 08:50:09;;;;;;;6.38;2.60;;;5.50;99.90;;;5.19;75.34;100618.03;5029215;28;20041;-77
2023/03/15 08:52:35;;;;;;;7.65;3.20;;;5.50;99.90;;;4.98;76.96;100622.25;5023361;28;20064;-77
2023/03/15 08:55:03;;;;;;;7.03;2.55;;;5.10;99.90;;;5.46;77.66;100637.41;5027910;28;20049;-76
2023/03/15 08:57:31;;;;;;;;;;;5.30;99.90;;;5.83;74.87;100624.03;5030452;28;20095;-75
2023/03/15 09:00:00;;;;;;;5.97;2.50;;;5.50;99.90;;;6.35;74.21;100629.53;5043146;28;19921;-77
2023/03/15 09:02:27;;;;;;;5.60;2.30;;;5.90;99.90;;;5.61;73.98;100646.41;5029124;28;20050;-75
2023/03/15 09:04:52;;;;;;;9.68;2.13;;;5.90;99.90;;;5.37;75.45;100643.94;5027911;28;20116;-76
2023/03/15 09:07:20;;;;;;;7.70;2.80;;;5.60;99.90;;;5.89;74.71;100651.22;5028635;28;20124;-77
2023/03/15 09:09:47;;;;;;;7.28;2.42;;;5.70;99.90;;;5.46;74.70;100649.09;5029025;28;20045;-75
2023/03/15 09:12:16;;;;;;;9.13;2.80;;;5.40;99.90;;;5.25;74.11;100649.75;5029814;28;20033;-78
2023/03/15 09:14:43;;;;;;;9.52;2.92;;;5.40;99.90;;;5.94;73.90;100649.81;5028265;28;20107;-77
2023/03/15 09:17:09;;;;;;;12.70;3.25;;;5.70;99.90;;;6.73;71.88;100651.03;5036033;28;20033;-78
2023/03/15 09:19:35;;;;;;;8.25;2.85;;;6.30;99.90;;;7.29;69.31;100649.50;5028870;28;20864;-77
2023/03/15 09:22:01;;;;;;;11.88;3.08;;;6.90;99.90;;;7.65;67.21;100653.16;5028581;28;20472;-77
2023/03/15 09:24:27;;;;;;;9.68;2.88;;;7.40;99.90;;;7.46;65.97;100641.94;5027616;28;20095;-77
2023/03/15 09:26:52;;;;;;;11.57;3.22;;;7.50;99.90;;;6.71;65.33;100640.41;5027159;28;20544;-78
2023/03/15 09:29:18;;;;;;;10.63;3.13;;;7.20;99.90;;;7.02;67.43;100657.38;5028039;28;20082;-77
2023/03/15 09:31:44;;;;;;;9.93;2.88;;;7.00;99.90;;;7.17;63.28;100643.78;5042137;28;20044;-77
2023/03/15 09:34:10;;;;;;;6.75;2.05;;;;;;;6.54;64.94;100655.19;5025450;28;20531;-78
2023/03/15 09:36:35;;;;;;;7.45;2.00;;;7.20;99.90;;;6.16;66.30;100665.16;5027153;28;20052;-78
2023/03/15 09:39:02;;;;;;;9.55;2.60;;;6.60;99.90;;;5.83;66.17;100662.75;5028338;28;20075;-76
2023/03/15 09:41:42;;;;;;;9.52;2.40;;;6.30;99.90;;;5.68;69.36;100680.88;5028590;28;20049;-76
2023/03/15 09:44:33;;;;;;;8.85;2.45;;;5.90;99.90;;;5.98;70.00;100687.16;5025859;28;20544;-75
2023/03/15 09:47:19;;;;;;;7.18;1.85;;;5.90;99.90;;;5.65;69.96;100692.06;5027738;28;20053;-77
2023/03/15 09:50:15;;;;;;;12.30;2.40;;;5.90;99.90;;;5.65;69.58;100694.75;5028193;28;20116;-74
2023/03/15 09:53:01;;;;;;;8.57;1.70;;;5.80;99.90;;;5.51;66.73;100683.69;5025804;28;20041;-75
2023/03/15 09:55:28;;;;;;;7.97;2.08;;;5.80;99.90;;;5.31;66.80;100692.34;5040913;28;20038;-77
2023/03/15 09:58:01;;;;;;;10.33;3.07;;;5.70;99.90;;;6.02;67.57;100693.94;5027432;28;20143;-77
2023/03/15 10:00:41;;;;;;;7.90;1.90;;;5.90;99.90;;;6.86;63.88;100666.63;5027572;28;20356;-76
2023/03/15 10:03:23;;;;;;;9.82;2.10;;;7.00;99.90;;;6.87;61.73;100676.44;5026903;28;20048;-77
2023/03/15 10:05:57;;;;;;;8.52;1.70;;;7.70;99.90;;;7.68;60.60;100683.47;5021412;28;20112;-76
2023/03/15 10:08:24;;;;;;;10.52;1.63;;;8.40;99.90;;;8.03;58.52;100667.19;5025898;28;20084;-77
2023/03/15 10:11:03;;;;;;;9.43;1.65;;;8.90;99.90;;;8.29;56.19;100660.25;5021582;28;20037;-78
2023/03/15 10:14:01;;;;;;;;;;;9.80;99.90;;;8.07;53.47;100643.19;5028353;28;20040;-78
2023/03/15 10:16:44;;;;;;;8.23;1.23;;;9.80;99.90;;;8.88;50.85;100627.22;5025727;28;19917;-76
2023/03/15 10:19:44;;;;;;;7.97;1.33;;;9.90;99.90;;;8.53;47.28;100617.28;5022732;28;20041;-77
2023/03/15 10:22:13;;;;;;;7.63;1.38;;;10.40;98.50;;;7.98;49.26;100631.66;5024473;28;20049;-76
2023/03/15 10:25:08;;;;;;;6.38;1.08;;;8.90;99.90;;;7.18;49.68;100626.47;5026040;28;20038;-76
2023/03/15 10:27:44;;;;;;;4.70;1.05;;;7.90;99.90;;;7.97;47.83;100626.44;5028044;28;20091;-78
2023/03/15 10:30:32;;;;;;;7.82;1.25;;;8.00;99.90;;;9.66;44.32;100606.72;5008662;28;20045;-76
2023/03/15 10:33:04;;;;;;;4.10;0.82;;;9.30;99.20;;;9.85;42.56;100588.69;5025698;28;20489;-75
2023/03/15 10:35:30;;;;;;;3.85;0.80;;;9.80;97.30;;;10.62;42.01;100603.50;5045739;28;20037;-76
2023/03/15 10:37:57;;;;;;;1.65;0.80;;;10.40;97.10;;;11.68;39.77;100604.81;5027874;28;20176;-77
2023/03/15 10:40:43;;;;;;;5.97;1.55;;;11.60;95.10;;;13.57;38.30;100603.16;5028610;28;20071;-76
2023/03/15 10:43:35;;;;;;;7.38;1.23;;;12.30;95.20;;;13.87;38.37;100619.47;5022815;28;20030;-77
2023/03/15 10:46:04;;;;;;;4.75;0.95;;;13.20;94.20;;;13.24;35.05;100591.63;5039773;28;20029;-77